createdAt,value
2022-12-17T00:01:06.572Z,35.35
2022-12-17T00:03:52.840Z,40.60
2022-12-17T00:06:38.409Z,36.92
2022-12-17T00:09:23.584Z,36.80
2022-12-17T00:12:09.913Z,37.78
2022-12-17T00:14:55.107Z,37.83
2022-12-17T00:17:41.859Z,37.85
2022-12-17T00:20:27.554Z,40.85
2022-12-17T00:23:23.757Z,40.33
2022-12-17T00:26:13.413Z,40.92
2022-12-17T00:28:59.551Z,36.25
2022-12-17T00:31:46.521Z,38.13
2022-12-17T00:34:32.018Z,35.33
2022-12-17T00:37:18.069Z,35.00
2022-12-17T00:40:03.589Z,38.17
2022-12-17T00:42:48.782Z,38.78
2022-12-17T00:45:34.398Z,40.75
2022-12-17T00:48:19.516Z,41.78
2022-12-17T00:51:05.041Z,41.33
2022-12-17T00:53:50.189Z,39.10
2022-12-17T00:56:35.346Z,41.20
2022-12-17T00:59:20.493Z,41.42
2022-12-17T01:02:06.025Z,39.13
2022-12-17T01:05:01.987Z,38.42
2022-12-17T01:07:47.774Z,44.42
2022-12-17T01:10:33.186Z,43.08
2022-12-17T01:13:18.581Z,42.25
2022-12-17T01:16:06.757Z,40.70
2022-12-17T01:18:52.036Z,42.50
2022-12-17T01:21:51.052Z,40.90
2022-12-17T01:24:37.548Z,42.50
2022-12-17T01:27:24.254Z,40.88
2022-12-17T01:30:09.764Z,43.67
2022-12-17T01:32:54.874Z,38.33
2022-12-17T01:35:40.198Z,39.50
2022-12-17T01:38:37.045Z,40.28
2022-12-17T01:41:23.762Z,40.47
2022-12-17T01:44:10.172Z,42.47
2022-12-17T01:46:59.802Z,38.95
2022-12-17T01:49:46.486Z,39.40
2022-12-17T01:52:34.853Z,41.92
2022-12-17T01:55:22.945Z,39.42
2022-12-17T01:58:08.407Z,39.75
2022-12-17T02:00:53.698Z,41.42
2022-12-17T02:03:39.409Z,37.78
2022-12-17T02:06:47.263Z,38.17
2022-12-17T02:09:44.381Z,39.35
2022-12-17T02:12:31.057Z,38.65
2022-12-17T02:15:42.053Z,37.78
2022-12-17T02:18:35.609Z,39.03
2022-12-17T02:21:21.984Z,40.17
2022-12-17T02:24:26.742Z,39.03
2022-12-17T02:27:15.031Z,39.85
2022-12-17T02:30:03.932Z,39.95
2022-12-17T02:32:53.058Z,38.60
2022-12-17T02:35:46.457Z,37.17
2022-12-17T02:38:43.911Z,41.00
2022-12-17T02:41:47.572Z,43.20
2022-12-17T02:44:38.172Z,40.25
2022-12-17T02:47:27.838Z,42.47
2022-12-17T02:50:14.169Z,40.53
2022-12-17T02:53:03.751Z,39.13
2022-12-17T02:55:49.124Z,44.55
2022-12-17T02:58:36.483Z,42.25
2022-12-17T03:01:22.065Z,44.95
2022-12-17T03:04:07.681Z,38.95
2022-12-17T03:06:53.086Z,43.30
2022-12-17T03:09:39.425Z,41.55
2022-12-17T03:12:25.194Z,39.33
2022-12-17T03:15:10.341Z,42.38
2022-12-17T03:17:55.904Z,42.40
2022-12-17T03:20:41.165Z,43.13
2022-12-17T03:23:28.999Z,41.08
2022-12-17T03:26:19.739Z,38.10
2022-12-17T03:29:05.301Z,39.40
2022-12-17T03:31:50.802Z,37.30
2022-12-17T03:34:36.121Z,39.53
2022-12-17T03:37:25.273Z,37.40
2022-12-17T03:40:10.518Z,34.80
2022-12-17T03:42:55.825Z,37.58
2022-12-17T03:45:41.035Z,38.83
2022-12-17T03:48:30.902Z,37.03
2022-12-17T03:51:21.099Z,36.63
2022-12-17T03:54:06.449Z,38.30
2022-12-17T03:56:52.157Z,35.25
2022-12-17T03:59:37.815Z,34.30
2022-12-17T04:02:23.733Z,36.13
2022-12-17T04:05:16.575Z,35.17
2022-12-17T04:08:05.310Z,35.65
2022-12-17T04:10:50.556Z,37.22
2022-12-17T04:13:40.509Z,39.20
2022-12-17T04:16:27.302Z,36.05
2022-12-17T04:19:12.640Z,36.78
2022-12-17T04:21:58.884Z,39.42
2022-12-17T04:24:44.455Z,39.42
2022-12-17T04:27:29.905Z,37.28
2022-12-17T04:30:15.136Z,36.10
2022-12-17T04:33:00.305Z,36.53
2022-12-17T04:35:45.648Z,37.92
2022-12-17T04:38:38.508Z,37.75
2022-12-17T04:44:11.525Z,34.38
2022-12-17T04:46:57.075Z,37.08
2022-12-17T04:49:42.538Z,38.60
2022-12-17T04:52:28.330Z,36.75
2022-12-17T04:55:13.662Z,36.83
2022-12-17T04:57:58.908Z,38.33
2022-12-17T05:00:44.137Z,40.13
2022-12-17T05:03:32.401Z,40.78
2022-12-17T05:06:18.517Z,37.70
2022-12-17T05:09:04.283Z,37.63
2022-12-17T05:11:49.811Z,39.38
2022-12-17T05:14:35.322Z,36.85
2022-12-17T05:17:20.804Z,37.15
2022-12-17T05:20:06.002Z,35.75
2022-12-17T05:22:54.170Z,36.67
2022-12-17T05:25:39.341Z,37.28
2022-12-17T05:28:24.606Z,36.83
2022-12-17T05:31:11.775Z,36.63
2022-12-17T05:33:57.499Z,38.13
2022-12-17T05:36:43.345Z,37.15
2022-12-17T05:39:28.901Z,37.00
2022-12-17T05:42:14.292Z,39.15
2022-12-17T05:44:59.512Z,38.33
2022-12-17T05:47:44.630Z,39.42
2022-12-17T05:50:29.907Z,37.45
2022-12-17T05:53:25.837Z,37.58
2022-12-17T05:56:16.640Z,36.58
2022-12-17T05:59:01.839Z,35.15
2022-12-17T06:01:47.138Z,35.67
2022-12-17T06:04:32.553Z,36.22
2022-12-17T06:07:17.694Z,36.58
2022-12-17T06:10:03.066Z,35.78
2022-12-17T06:12:48.276Z,35.25
2022-12-17T06:15:33.568Z,32.72
2022-12-17T06:18:18.613Z,36.78
2022-12-17T06:21:04.539Z,39.28
2022-12-17T06:23:49.857Z,38.25
2022-12-17T06:26:35.102Z,35.80
2022-12-17T06:29:20.313Z,40.15
2022-12-17T06:32:05.440Z,38.80
2022-12-17T06:34:50.919Z,39.55
2022-12-17T06:37:36.190Z,40.42
2022-12-17T06:40:22.011Z,40.72
2022-12-17T06:43:12.018Z,39.22
2022-12-17T06:45:57.573Z,32.67
2022-12-17T06:48:42.771Z,36.80
2022-12-17T06:51:27.833Z,35.85
2022-12-17T06:54:13.038Z,36.08
2022-12-17T06:56:58.579Z,37.08
2022-12-17T06:59:43.661Z,36.22
2022-12-17T07:02:29.490Z,36.58
2022-12-17T07:05:14.929Z,35.83
2022-12-17T07:08:00.323Z,34.40
2022-12-17T07:10:45.654Z,35.63
2022-12-17T07:13:30.813Z,36.97
2022-12-17T07:16:16.094Z,34.50
2022-12-17T07:19:01.537Z,35.28
2022-12-17T07:21:46.564Z,36.67
2022-12-17T07:24:32.067Z,37.00
2022-12-17T07:27:17.167Z,36.28
2022-12-17T07:30:02.382Z,36.15
2022-12-17T07:32:47.726Z,36.70
2022-12-17T07:35:33.068Z,34.50
2022-12-17T07:38:23.452Z,31.15
2022-12-17T07:41:11.385Z,32.92
2022-12-17T07:43:56.726Z,30.40
2022-12-17T07:46:42.448Z,31.58
2022-12-17T07:49:27.922Z,29.13
2022-12-17T07:52:13.223Z,29.88
2022-12-17T07:54:58.677Z,31.88
2022-12-17T07:57:44.152Z,29.90
2022-12-17T08:00:30.284Z,28.77
2022-12-17T08:03:19.408Z,30.40
2022-12-17T08:06:05.147Z,30.40
2022-12-17T08:08:50.213Z,29.83
2022-12-17T08:11:35.352Z,29.92
2022-12-17T08:14:20.667Z,30.75
2022-12-17T08:17:06.350Z,33.25
2022-12-17T08:19:51.861Z,32.20
2022-12-17T08:22:37.096Z,33.50
2022-12-17T08:25:22.352Z,31.23
2022-12-17T08:28:15.614Z,35.88
2022-12-17T08:31:08.462Z,32.10
2022-12-17T08:33:54.335Z,33.97
2022-12-17T08:36:39.599Z,35.08
2022-12-17T08:39:24.993Z,33.22
2022-12-17T08:42:10.239Z,35.53
2022-12-17T08:44:55.576Z,32.53
2022-12-17T08:47:42.301Z,35.97
2022-12-17T08:50:27.966Z,34.08
2022-12-17T08:53:20.528Z,36.00
2022-12-17T08:56:06.043Z,35.20
2022-12-17T08:59:11.161Z,34.38
2022-12-17T09:01:56.629Z,34.20
2022-12-17T09:04:41.904Z,33.92
2022-12-17T09:07:27.568Z,35.25
2022-12-17T09:10:12.873Z,36.17
2022-12-17T09:13:04.195Z,34.40
2022-12-17T09:15:51.639Z,36.05
2022-12-17T09:18:38.481Z,33.80
2022-12-17T09:21:24.028Z,39.10
2022-12-17T09:24:09.336Z,33.90
2022-12-17T09:26:55.287Z,36.15
2022-12-17T09:29:40.481Z,37.40
2022-12-17T09:32:25.740Z,34.30
2022-12-17T09:35:10.980Z,38.13
2022-12-17T09:37:56.517Z,38.28
2022-12-17T09:40:43.462Z,34.58
2022-12-17T09:44:03.358Z,37.35
2022-12-17T09:47:01.099Z,35.83
2022-12-17T09:49:47.792Z,37.63
2022-12-17T09:52:43.821Z,37.85
2022-12-17T09:55:37.934Z,35.60
2022-12-17T09:58:23.352Z,37.75
2022-12-17T10:01:08.903Z,39.10
2022-12-17T10:03:55.051Z,36.60
2022-12-17T10:06:45.863Z,36.00
2022-12-17T10:09:37.816Z,38.33
2022-12-17T10:12:34.695Z,38.40
2022-12-17T10:15:20.556Z,36.35
2022-12-17T10:18:05.873Z,36.40
2022-12-17T10:20:56.645Z,37.85
2022-12-17T10:23:47.435Z,38.25
2022-12-17T10:26:41.334Z,33.88
2022-12-17T10:29:34.294Z,36.38
2022-12-17T10:35:15.647Z,32.95
2022-12-17T10:38:00.973Z,35.13
2022-12-17T10:40:50.020Z,34.22
2022-12-17T10:43:47.345Z,35.40
2022-12-17T10:47:14.525Z,35.38
2022-12-17T10:49:59.733Z,32.28
2022-12-17T10:52:51.145Z,33.80
2022-12-17T10:55:46.597Z,34.25
2022-12-17T10:58:38.519Z,34.30
2022-12-17T11:01:28.708Z,34.78
2022-12-17T11:04:18.405Z,33.55
2022-12-17T11:07:11.973Z,33.03
2022-12-17T11:10:09.746Z,32.53
2022-12-17T11:13:15.862Z,31.55
2022-12-17T11:16:14.594Z,31.25
2022-12-17T11:19:17.477Z,29.83
2022-12-17T11:22:07.387Z,30.75
2022-12-17T11:25:00.863Z,32.75
2022-12-17T11:27:51.653Z,32.17
2022-12-17T11:30:37.158Z,31.60
2022-12-17T11:33:37.011Z,32.55
2022-12-17T11:36:38.690Z,30.60
2022-12-17T11:39:39.855Z,30.75
2022-12-17T11:42:50.277Z,29.73
2022-12-17T11:45:51.651Z,29.25
2022-12-17T11:48:57.004Z,28.35
2022-12-17T11:52:06.849Z,28.67
2022-12-17T11:54:56.000Z,28.13
2022-12-17T11:57:48.272Z,29.70
2022-12-17T12:00:38.493Z,30.08
2022-12-17T12:03:26.946Z,30.60
2022-12-17T12:06:16.742Z,29.15
2022-12-17T12:09:30.089Z,30.35
2022-12-17T12:15:31.859Z,28.42
2022-12-17T12:18:17.199Z,28.23
2022-12-17T12:21:17.386Z,29.73
2022-12-17T12:24:30.229Z,30.65
2022-12-17T12:27:42.349Z,30.00
2022-12-17T12:30:38.000Z,31.48
2022-12-17T12:33:53.358Z,30.00
2022-12-17T12:36:42.321Z,27.20
2022-12-17T12:39:32.005Z,26.67
2022-12-17T12:42:35.555Z,28.83
2022-12-17T12:45:44.863Z,29.15
2022-12-17T12:49:06.738Z,26.98
2022-12-17T12:51:56.257Z,30.17
2022-12-17T12:54:43.634Z,28.58
2022-12-17T12:57:56.306Z,27.65
2022-12-17T13:00:58.086Z,27.15
2022-12-17T13:03:57.746Z,26.58
2022-12-17T13:06:42.593Z,27.42
2022-12-17T13:09:15.256Z,24.17
2022-12-17T13:14:49.972Z,22.33
2022-12-17T13:17:16.657Z,25.08
2022-12-17T13:19:47.358Z,26.45
2022-12-17T13:22:23.678Z,24.77
2022-12-17T13:24:57.270Z,23.95
2022-12-17T13:27:38.113Z,25.08
2022-12-17T13:30:17.099Z,22.85
2022-12-17T13:33:07.880Z,27.42
2022-12-17T13:35:58.734Z,25.75
2022-12-17T13:38:31.611Z,24.33
2022-12-17T13:41:13.711Z,25.65
2022-12-17T13:43:50.958Z,25.98
2022-12-17T13:46:26.297Z,28.10
2022-12-17T13:48:57.717Z,27.08
2022-12-17T13:51:27.646Z,27.80
2022-12-17T13:54:02.663Z,29.98
2022-12-17T13:56:37.244Z,27.52
2022-12-17T13:59:09.186Z,29.65
2022-12-17T14:04:30.615Z,30.55
2022-12-17T14:07:04.855Z,28.55
2022-12-17T14:09:42.768Z,28.67
2022-12-17T14:12:23.726Z,30.02
2022-12-17T14:14:57.844Z,30.98
2022-12-17T14:17:42.213Z,33.00
2022-12-17T14:20:17.457Z,31.80
2022-12-17T14:22:51.332Z,29.20
2022-12-17T14:25:24.227Z,32.47
2022-12-17T14:28:28.013Z,35.72
2022-12-17T14:34:11.634Z,30.52
2022-12-17T14:36:43.558Z,30.48
2022-12-17T14:39:23.853Z,33.05
2022-12-17T14:42:09.327Z,32.55
2022-12-17T14:44:42.077Z,33.47
2022-12-17T14:47:21.914Z,31.70
2022-12-17T14:50:02.938Z,33.63
2022-12-17T14:52:50.946Z,34.55
2022-12-17T14:55:33.171Z,30.40
2022-12-17T14:58:11.842Z,31.65
2022-12-17T15:00:40.291Z,32.70
2022-12-17T15:03:11.612Z,33.50
2022-12-17T15:05:38.447Z,33.63
2022-12-17T15:08:05.806Z,35.35
2022-12-17T15:10:32.654Z,32.55
2022-12-17T15:12:59.369Z,31.80
2022-12-17T15:15:26.116Z,30.88
2022-12-17T15:17:53.199Z,31.98
2022-12-17T15:20:21.625Z,33.00
2022-12-17T15:22:48.338Z,32.40
2022-12-17T15:25:18.300Z,33.80
2022-12-17T15:27:46.330Z,33.80
2022-12-17T15:30:17.570Z,32.70
2022-12-17T15:32:45.242Z,34.20
2022-12-17T15:35:13.313Z,38.42
2022-12-17T15:37:40.060Z,38.83
2022-12-17T15:40:07.613Z,37.90
2022-12-17T15:42:52.781Z,36.45
2022-12-17T15:45:19.478Z,35.80
2022-12-17T15:47:46.225Z,38.65
2022-12-17T15:50:12.839Z,38.80
2022-12-17T15:52:39.572Z,40.72
2022-12-17T15:55:06.683Z,38.33
2022-12-17T15:57:33.354Z,38.47
2022-12-17T16:00:00.080Z,40.08
2022-12-17T16:02:26.982Z,41.30
2022-12-17T16:04:53.815Z,42.47
2022-12-17T16:07:20.510Z,41.10
2022-12-17T16:09:47.245Z,42.92
2022-12-17T16:12:13.989Z,40.22
2022-12-17T16:14:40.706Z,41.72
2022-12-17T16:17:07.416Z,43.78
2022-12-17T16:19:34.270Z,43.28
2022-12-17T16:22:00.928Z,42.53
2022-12-17T16:24:27.587Z,41.45
2022-12-17T16:26:56.224Z,41.90
2022-12-17T16:29:24.996Z,40.80
2022-12-17T16:31:51.679Z,39.25
2022-12-17T16:34:18.523Z,44.15
2022-12-17T16:36:45.255Z,43.80
2022-12-17T16:39:17.292Z,39.30
2022-12-17T16:41:44.515Z,42.50
2022-12-17T16:44:11.560Z,43.50
2022-12-17T16:46:41.301Z,43.90
2022-12-17T16:49:13.975Z,42.88
2022-12-17T16:51:41.281Z,42.25
2022-12-17T16:54:10.439Z,38.70
2022-12-17T16:56:40.427Z,39.20
2022-12-17T16:59:08.532Z,40.10
2022-12-17T17:01:36.934Z,40.35
2022-12-17T17:04:05.713Z,38.13
2022-12-17T17:06:34.207Z,39.75
2022-12-17T17:09:04.214Z,41.15
2022-12-17T17:11:30.951Z,41.53
2022-12-17T17:13:57.645Z,41.85
2022-12-17T17:16:24.896Z,41.58
2022-12-17T17:18:52.601Z,41.42
2022-12-17T17:21:19.242Z,39.65
2022-12-17T17:23:46.786Z,42.22
2022-12-17T17:26:14.522Z,40.38
2022-12-17T17:28:41.819Z,38.70
2022-12-17T17:31:11.601Z,41.75
2022-12-17T17:33:42.980Z,41.50
2022-12-17T17:36:12.113Z,40.83
2022-12-17T17:38:40.782Z,41.30
2022-12-17T17:41:11.101Z,40.92
2022-12-17T17:43:37.967Z,39.28
2022-12-17T17:46:10.476Z,42.22
2022-12-17T17:51:08.448Z,37.33
2022-12-17T17:53:36.310Z,41.47
2022-12-17T17:56:14.719Z,44.47
2022-12-17T17:58:43.836Z,45.28
2022-12-17T18:01:12.777Z,44.08
2022-12-17T18:03:39.644Z,43.17
2022-12-17T18:06:08.087Z,39.85
2022-12-17T18:08:37.314Z,42.97
2022-12-17T18:11:06.656Z,40.60
2022-12-17T18:13:52.134Z,41.65
2022-12-17T18:16:19.487Z,41.40
2022-12-17T18:18:46.393Z,42.55
2022-12-17T18:21:17.930Z,43.90
2022-12-17T18:23:45.025Z,41.63
2022-12-17T18:26:16.415Z,43.03
2022-12-17T18:28:43.773Z,40.45
2022-12-17T18:31:16.819Z,41.17
2022-12-17T18:33:45.789Z,41.88
2022-12-17T18:36:31.466Z,39.78
2022-12-17T18:39:00.877Z,41.72
2022-12-17T18:41:46.587Z,38.60
2022-12-17T18:44:14.218Z,36.90
2022-12-17T18:46:40.982Z,40.13
2022-12-17T18:49:11.301Z,39.15
2022-12-17T18:51:41.443Z,37.70
2022-12-17T18:54:12.794Z,39.85
2022-12-17T18:57:00.547Z,39.42
2022-12-17T18:59:29.258Z,36.45
2022-12-17T19:01:56.515Z,39.95
2022-12-17T19:04:24.372Z,41.00
2022-12-17T19:06:53.343Z,37.83
2022-12-17T19:09:24.863Z,39.45
2022-12-17T19:11:52.909Z,41.55
2022-12-17T19:14:22.008Z,38.58
2022-12-17T19:16:50.247Z,37.28
2022-12-17T19:19:17.691Z,36.50
2022-12-17T19:21:44.349Z,33.72
2022-12-17T19:24:15.775Z,33.63
2022-12-17T19:26:43.490Z,38.17
2022-12-17T19:29:13.198Z,37.00
2022-12-17T19:31:40.345Z,37.95
2022-12-17T19:34:10.343Z,36.67
2022-12-17T19:36:38.417Z,32.75
2022-12-17T19:39:11.219Z,33.63
2022-12-17T19:41:38.080Z,35.80
2022-12-17T19:44:07.578Z,34.13
2022-12-17T19:46:35.755Z,36.75
2022-12-17T19:49:03.350Z,33.80
2022-12-17T19:51:31.625Z,36.88
2022-12-17T19:54:01.963Z,35.50
2022-12-17T19:56:34.918Z,34.15
2022-12-17T19:59:06.941Z,34.38
2022-12-17T20:01:36.697Z,33.53
2022-12-17T20:04:05.064Z,30.73
2022-12-17T20:06:34.937Z,30.80
2022-12-17T20:09:03.537Z,31.33
2022-12-17T20:11:33.215Z,31.73
2022-12-17T20:14:01.684Z,33.90
2022-12-17T20:16:30.278Z,30.65
2022-12-17T20:19:00.223Z,29.67
2022-12-17T20:21:27.309Z,32.65
2022-12-17T20:23:54.190Z,32.83
2022-12-17T20:26:20.828Z,32.45
2022-12-17T20:28:47.435Z,32.15
2022-12-17T20:31:15.006Z,33.25
2022-12-17T20:33:42.099Z,29.92
2022-12-17T20:36:12.171Z,34.92
2022-12-17T20:38:39.517Z,32.20
2022-12-17T20:41:11.057Z,35.33
2022-12-17T20:43:38.599Z,34.30
2022-12-17T20:46:06.397Z,35.50
2022-12-17T20:48:33.134Z,32.83
2022-12-17T20:51:03.693Z,33.40
2022-12-17T20:53:30.947Z,33.13
2022-12-17T20:56:12.143Z,32.42
2022-12-17T20:58:40.357Z,34.90
2022-12-17T21:01:16.741Z,32.80
2022-12-17T21:03:43.517Z,32.65
2022-12-17T21:06:16.431Z,31.95
2022-12-17T21:08:49.663Z,31.23
2022-12-17T21:11:22.488Z,31.42
2022-12-17T21:13:49.461Z,32.55
2022-12-17T21:16:22.134Z,32.80
2022-12-17T21:18:48.889Z,34.70
2022-12-17T21:21:18.342Z,31.35
2022-12-17T21:23:46.953Z,33.40
2022-12-17T21:26:15.233Z,32.33
2022-12-17T21:28:45.057Z,33.03
2022-12-17T21:31:22.137Z,33.63
2022-12-17T21:33:50.258Z,33.25
2022-12-17T21:36:19.770Z,38.17
2022-12-17T21:38:47.004Z,35.00
2022-12-17T21:41:16.386Z,35.97
2022-12-17T21:43:43.254Z,37.17
2022-12-17T21:46:11.234Z,36.53
2022-12-17T21:48:42.158Z,34.00
2022-12-17T21:51:11.298Z,37.33
2022-12-17T21:53:42.289Z,37.15
2022-12-17T21:56:19.152Z,35.60
2022-12-17T21:58:46.990Z,35.97
2022-12-17T22:01:20.004Z,37.15
2022-12-17T22:03:53.576Z,40.33
2022-12-17T22:06:23.943Z,38.00
2022-12-17T22:08:54.534Z,41.67
2022-12-17T22:11:26.566Z,34.08
2022-12-17T22:14:07.414Z,36.17
2022-12-17T22:16:39.024Z,37.05
2022-12-17T22:19:07.098Z,37.28
2022-12-17T22:21:35.771Z,41.38
2022-12-17T22:24:03.536Z,35.33
2022-12-17T22:26:30.553Z,34.40
2022-12-17T22:28:57.358Z,35.08
2022-12-17T22:31:42.566Z,33.53
2022-12-17T22:35:23.152Z,34.42
2022-12-17T22:40:15.932Z,32.47
2022-12-17T22:43:58.806Z,34.88
2022-12-17T22:44:43.118Z,32.53
2022-12-17T22:45:40.976Z,33.33
2022-12-17T22:48:12.720Z,34.28
2022-12-17T22:50:44.636Z,36.88
2022-12-17T22:53:26.596Z,35.67
2022-12-17T22:55:53.503Z,37.55
2022-12-17T22:58:21.207Z,37.03
2022-12-17T23:00:48.093Z,35.53
2022-12-17T23:03:14.948Z,37.90
2022-12-17T23:05:41.971Z,38.40
2022-12-17T23:08:08.742Z,37.40
2022-12-17T23:10:35.422Z,37.08
2022-12-17T23:13:02.046Z,35.83
2022-12-17T23:15:36.865Z,39.38
2022-12-17T23:18:06.226Z,39.10
2022-12-17T23:20:34.752Z,38.85
2022-12-17T23:23:01.800Z,41.30
2022-12-17T23:25:29.225Z,37.65
2022-12-17T23:27:56.082Z,37.80
2022-12-17T23:30:22.745Z,39.65
2022-12-17T23:32:50.617Z,38.22
2022-12-17T23:35:17.289Z,34.75
2022-12-17T23:37:44.085Z,38.20
2022-12-17T23:40:11.637Z,39.17
2022-12-17T23:42:39.199Z,37.58
2022-12-17T23:45:07.042Z,37.67
2022-12-17T23:47:34.014Z,40.55
2022-12-17T23:50:00.660Z,37.55
2022-12-17T23:52:27.440Z,37.88
2022-12-17T23:54:54.116Z,37.28
2022-12-17T23:57:20.730Z,36.70
2022-12-17T23:59:47.377Z,33.75
